Aviation Digital Data Service (ADDS)

Output produced by METARs form (0659 UTC 31 October 2014)
found at http://www.aviationweather.gov/adds/metars/
 
KALB 310530Z 3106/0106 VRB03KT P6SM SCT250 
     FM311200 VRB03KT P6SM SCT050 BKN150 
     FM311700 06005KT P6SM BKN050 OVC100